Paradise, Canada
Current Conditions -  °F | °C
As of 6:15 AM on Wednesday 28 Jan 2015 (Local Time) from CYQX Reporting Station
Ice Pellets Ice Pellets  
Wind Chill: 21°   Ceiling: 200
Heat Index: 28°   Visibility: 1.2mi
Dew Point: 28°   Wind: 7mph
Humidity: 100%   Direction: 30°NNE
Pressure: 29.75"   Gusts: NA
Location:  49.37°N, 55.33°W
Report Text: CYQX 280915Z 03006KT 1 1/4SM -FZDZ -PL BR OVC002 M02/M02 A2975 RMK FG4SF4 SLP085
Loading
Personal Weather Stations






























Interactive Weather Map New forecast layout! Learn more

10-Day Weather Forecast

Advertisements
Track Severe Weather on mobile